createdAt,value
2023-04-29T00:01:58.876Z,100512.91
2023-04-29T00:04:26.720Z,100501.84
2023-04-29T00:06:54.274Z,100495.28
2023-04-29T00:09:22.601Z,100488.63
2023-04-29T00:11:50.431Z,100484.75
2023-04-29T00:14:19.170Z,100477.47
2023-04-29T00:16:46.879Z,100475.25
2023-04-29T00:19:14.301Z,100483.53
2023-04-29T00:21:41.698Z,100480.81
2023-04-29T00:24:09.095Z,100485.16
2023-04-29T00:26:36.489Z,100493.78
2023-04-29T00:29:03.913Z,100487.66
2023-04-29T00:31:32.987Z,100480.81
2023-04-29T00:34:00.752Z,100486.69
2023-04-29T00:36:28.392Z,100478.03
2023-04-29T00:38:55.784Z,100482.03
2023-04-29T00:41:23.187Z,100487.75
2023-04-29T00:43:50.697Z,100483.44
2023-04-29T00:46:18.248Z,100491.19
2023-04-29T00:48:46.992Z,100479.19
2023-04-29T00:51:14.901Z,100490.91
2023-04-29T00:53:42.868Z,100488.88
2023-04-29T00:56:11.405Z,100486.88
2023-04-29T00:58:39.154Z,100494.22
2023-04-29T01:01:07.227Z,100494.88
2023-04-29T01:03:34.703Z,100474.66
2023-04-29T01:06:10.053Z,100462.44
2023-04-29T01:08:46.292Z,100465.69
2023-04-29T01:11:14.654Z,100443.84
2023-04-29T01:13:47.093Z,100458.13
2023-04-29T01:16:23.864Z,100479.72
2023-04-29T01:18:56.315Z,100482.41
2023-04-29T01:21:25.968Z,100476.44
2023-04-29T01:23:56.398Z,100480.88
2023-04-29T01:26:24.429Z,100486.25
2023-04-29T01:28:58.603Z,100491.41
2023-04-29T01:31:31.979Z,100487.75
2023-04-29T01:34:07.894Z,100481.53
2023-04-29T01:36:46.184Z,100469.13
2023-04-29T01:39:20.358Z,100467.97
2023-04-29T01:41:54.660Z,100457.03
2023-04-29T01:44:25.572Z,100453.41
2023-04-29T01:46:54.845Z,100463.63
2023-04-29T01:49:22.485Z,100462.84
2023-04-29T01:51:49.847Z,100471.69
2023-04-29T01:54:18.668Z,100467.13
2023-04-29T01:56:47.033Z,100470.06
2023-04-29T01:59:14.607Z,100463.88
2023-04-29T02:01:42.121Z,100467.63
2023-04-29T02:04:09.582Z,100468.16
2023-04-29T02:06:36.996Z,100474.31
2023-04-29T02:09:04.528Z,100469.25
2023-04-29T02:11:33.246Z,100468.94
2023-04-29T02:14:00.763Z,100461.13
2023-04-29T02:16:28.173Z,100454.31
2023-04-29T02:18:55.569Z,100457.25
2023-04-29T02:21:22.988Z,100460.19
2023-04-29T02:23:50.394Z,100457.28
2023-04-29T02:26:17.963Z,100449.56
2023-04-29T02:28:47.241Z,100452.75
2023-04-29T02:31:14.665Z,100451.25
2023-04-29T02:33:42.113Z,100448.53
2023-04-29T02:36:09.653Z,100450.13
2023-04-29T02:38:37.053Z,100451.63
2023-04-29T02:41:04.440Z,100448.91
2023-04-29T02:43:31.892Z,100449.16
2023-04-29T02:46:01.108Z,100444.78
2023-04-29T02:48:28.641Z,100444.78
2023-04-29T02:50:56.098Z,100444.16
2023-04-29T02:53:23.490Z,100445.56
2023-04-29T02:55:51.057Z,100445.53
2023-04-29T02:58:18.533Z,100449.09
2023-04-29T03:00:45.996Z,100449.81
2023-04-29T03:03:14.908Z,100439.44
2023-04-29T03:05:42.473Z,100448.06
2023-04-29T03:08:10.619Z,100440.50
2023-04-29T03:10:41.246Z,100445.06
2023-04-29T03:13:09.205Z,100444.84
2023-04-29T03:15:36.762Z,100439.63
2023-04-29T03:18:05.048Z,100442.88
2023-04-29T03:20:33.831Z,100445.69
2023-04-29T03:23:02.213Z,100445.56
2023-04-29T03:25:30.135Z,100445.72
2023-04-29T03:27:57.555Z,100436.63
2023-04-29T03:30:24.970Z,100432.81
2023-04-29T03:32:52.430Z,100433.72
2023-04-29T03:35:20.029Z,100440.06
2023-04-29T03:37:48.761Z,100434.69
2023-04-29T03:40:16.439Z,100443.41
2023-04-29T03:42:43.870Z,100432.88
2023-04-29T03:45:13.107Z,100436.59
2023-04-29T03:47:40.764Z,100431.09
2023-04-29T03:50:09.136Z,100435.75
2023-04-29T03:52:37.389Z,100439.91
2023-04-29T03:55:07.247Z,100437.25
2023-04-29T03:57:34.646Z,100434.66
2023-04-29T04:00:02.042Z,100427.78
2023-04-29T04:02:29.667Z,100441.44
2023-04-29T04:04:58.981Z,100439.69
2023-04-29T04:07:26.405Z,100439.22
2023-04-29T04:09:54.283Z,100455.84
2023-04-29T04:12:23.260Z,100448.50
2023-04-29T04:14:51.271Z,100444.78
2023-04-29T04:17:18.642Z,100446.72
2023-04-29T04:19:46.097Z,100451.81
2023-04-29T04:22:13.650Z,100439.63
2023-04-29T04:24:41.100Z,100451.59
2023-04-29T04:27:08.726Z,100439.41
2023-04-29T04:29:37.420Z,100452.72
2023-04-29T04:32:05.251Z,100452.81
2023-04-29T04:34:32.858Z,100444.78
2023-04-29T04:37:00.270Z,100437.66
2023-04-29T04:39:27.648Z,100452.31
2023-04-29T04:41:55.092Z,100449.91
2023-04-29T04:44:23.265Z,100453.53
2023-04-29T04:46:52.815Z,100448.00
2023-04-29T04:49:20.331Z,100451.63
2023-04-29T04:51:47.763Z,100456.28
2023-04-29T04:54:15.155Z,100452.59
2023-04-29T04:56:42.591Z,100452.38
2023-04-29T04:59:10.005Z,100450.53
2023-04-29T05:01:37.543Z,100462.50
2023-04-29T05:04:06.762Z,100458.38
2023-04-29T05:06:34.341Z,100457.44
2023-04-29T05:09:01.760Z,100460.09
2023-04-29T05:11:29.292Z,100460.91
2023-04-29T05:13:56.670Z,100453.94
2023-04-29T05:16:24.091Z,100458.56
2023-04-29T05:18:51.502Z,100457.63
2023-04-29T05:21:20.210Z,100462.84
2023-04-29T05:23:47.630Z,100461.78
2023-04-29T05:26:14.999Z,100457.44
2023-04-29T05:28:42.446Z,100470.25
2023-04-29T05:31:09.925Z,100471.94
2023-04-29T05:33:37.388Z,100467.59
2023-04-29T05:36:05.146Z,100472.84
2023-04-29T05:38:33.841Z,100471.84
2023-04-29T05:41:01.335Z,100476.00
2023-04-29T05:43:28.804Z,100468.31
2023-04-29T05:45:56.813Z,100473.41
2023-04-29T05:48:24.771Z,100473.41
2023-04-29T05:50:52.212Z,100482.19
2023-04-29T05:53:19.577Z,100482.84
2023-04-29T05:55:51.234Z,100476.88
2023-04-29T05:58:19.011Z,100480.44
2023-04-29T06:00:46.681Z,100476.13
2023-04-29T06:03:14.215Z,100483.25
2023-04-29T06:05:42.013Z,100487.38
2023-04-29T06:08:10.611Z,100484.91
2023-04-29T06:10:38.027Z,100487.41
2023-04-29T06:13:06.778Z,100490.81
2023-04-29T06:15:34.254Z,100493.28
2023-04-29T06:18:01.676Z,100493.31
2023-04-29T06:20:29.081Z,100495.00
2023-04-29T06:22:56.509Z,100493.19
2023-04-29T06:25:24.123Z,100498.72
2023-04-29T06:27:51.507Z,100504.44
2023-04-29T06:30:20.852Z,100511.25
2023-04-29T06:32:48.315Z,100515.00
2023-04-29T06:35:16.082Z,100515.38
2023-04-29T06:37:43.502Z,100524.06
2023-04-29T06:40:12.253Z,100521.50
2023-04-29T06:42:39.739Z,100531.00
2023-04-29T06:45:08.452Z,100529.22
2023-04-29T06:47:37.221Z,100533.38
2023-04-29T06:50:05.135Z,100542.19
2023-04-29T06:52:33.373Z,100542.66
2023-04-29T06:55:00.830Z,100540.31
2023-04-29T06:57:28.298Z,100545.53
2023-04-29T06:59:55.995Z,100549.88
2023-04-29T07:02:23.456Z,100548.47
2023-04-29T07:04:52.544Z,100556.22
2023-04-29T07:07:20.136Z,100556.22
2023-04-29T07:09:48.671Z,100559.69
2023-04-29T07:12:16.042Z,100574.31
2023-04-29T07:14:43.447Z,100576.03
2023-04-29T07:17:13.380Z,100575.19
2023-04-29T07:19:41.578Z,100572.56
2023-04-29T07:22:10.574Z,100581.16
2023-04-29T07:24:38.224Z,100587.19
2023-04-29T07:27:05.598Z,100588.94
2023-04-29T07:29:34.161Z,100585.50
2023-04-29T07:32:01.567Z,100597.53
2023-04-29T07:34:28.966Z,100599.22
2023-04-29T07:36:57.275Z,100603.50
2023-04-29T07:39:26.212Z,100604.47
2023-04-29T07:41:53.591Z,100612.22
2023-04-29T07:44:22.090Z,100607.94
2023-04-29T07:46:49.694Z,100614.81
2023-04-29T07:49:17.106Z,100629.44
2023-04-29T07:51:44.842Z,100629.41
2023-04-29T07:54:12.353Z,100636.31
2023-04-29T07:56:41.089Z,100638.78
2023-04-29T07:59:08.522Z,100638.00
2023-04-29T08:01:35.920Z,100642.22
2023-04-29T08:04:03.489Z,100654.34
2023-04-29T08:06:30.971Z,100664.44
2023-04-29T08:08:58.392Z,100662.81
2023-04-29T08:11:26.947Z,100664.66
2023-04-29T08:13:57.219Z,100674.91
2023-04-29T08:16:26.138Z,100677.47
2023-04-29T08:18:59.789Z,100683.47
2023-04-29T08:21:33.658Z,100692.94
2023-04-29T08:24:05.356Z,100685.22
2023-04-29T08:26:33.978Z,100693.09
2023-04-29T08:29:09.588Z,100699.09
2023-04-29T08:31:37.437Z,100706.91
2023-04-29T08:34:21.300Z,100710.31
2023-04-29T08:36:58.228Z,100717.06
2023-04-29T08:39:31.520Z,100709.41
2023-04-29T08:42:00.597Z,100723.22
2023-04-29T08:44:51.646Z,100726.66
2023-04-29T08:47:24.768Z,100726.69
2023-04-29T08:49:57.092Z,100728.38
2023-04-29T08:52:35.402Z,100745.56
2023-04-29T08:55:06.847Z,100736.97
2023-04-29T08:57:54.288Z,100742.34
2023-04-29T09:00:29.173Z,100737.94
2023-04-29T09:03:05.553Z,100750.44
2023-04-29T09:05:46.748Z,100759.38
2023-04-29T09:08:19.525Z,100763.69
2023-04-29T09:10:55.653Z,100770.78
2023-04-29T09:13:31.836Z,100772.09
2023-04-29T09:16:01.743Z,100771.16
2023-04-29T09:18:51.953Z,100776.50
2023-04-29T09:21:22.794Z,100790.69
2023-04-29T09:24:02.357Z,100793.84
2023-04-29T09:26:45.762Z,100796.91
2023-04-29T09:29:21.480Z,100804.06
2023-04-29T09:31:54.868Z,100797.13
2023-04-29T09:34:34.454Z,100815.81
2023-04-29T09:37:10.815Z,100814.78
2023-04-29T09:39:47.155Z,100824.88
2023-04-29T09:42:15.960Z,100828.59
2023-04-29T09:44:45.648Z,100830.94
2023-04-29T09:47:15.292Z,100838.63
2023-04-29T09:49:56.220Z,100838.66
2023-04-29T09:52:24.978Z,100844.53
2023-04-29T09:55:09.640Z,100851.50
2023-04-29T09:57:45.663Z,100852.28
2023-04-29T10:00:19.177Z,100865.09
2023-04-29T10:02:51.334Z,100859.97
2023-04-29T10:05:21.053Z,100865.50
2023-04-29T10:07:51.592Z,100865.59
2023-04-29T10:10:22.567Z,100862.94
2023-04-29T10:12:54.531Z,100871.19
2023-04-29T10:15:33.815Z,100875.59
2023-04-29T10:18:18.311Z,100879.94
2023-04-29T10:20:49.000Z,100881.00
2023-04-29T10:23:19.205Z,100881.41
2023-04-29T10:25:55.877Z,100877.28
2023-04-29T10:28:37.378Z,100879.72
2023-04-29T10:31:10.615Z,100893.16
2023-04-29T10:34:05.901Z,100891.25
2023-04-29T10:36:46.148Z,100899.28
2023-04-29T10:39:28.884Z,100896.72
2023-04-29T10:42:00.001Z,100901.84
2023-04-29T10:44:36.056Z,100907.13
2023-04-29T10:47:28.286Z,100910.59
2023-04-29T10:50:11.419Z,100909.56
2023-04-29T10:52:56.096Z,100918.13
2023-04-29T10:55:30.008Z,100914.06
2023-04-29T10:58:00.802Z,100915.22
2023-04-29T11:00:29.825Z,100917.94
2023-04-29T11:03:00.084Z,100914.41
2023-04-29T11:05:36.512Z,100918.75
2023-04-29T11:08:15.844Z,100917.09
2023-04-29T11:10:51.453Z,100918.19
2023-04-29T11:13:30.930Z,100922.94
2023-04-29T11:16:07.387Z,100918.66
2023-04-29T11:18:41.217Z,100918.19
2023-04-29T11:21:18.613Z,100927.66
2023-04-29T11:23:53.510Z,100932.78
2023-04-29T11:26:21.893Z,100929.53
2023-04-29T11:28:54.044Z,100938.19
2023-04-29T11:31:25.383Z,100935.53
2023-04-29T11:33:56.686Z,100938.09
2023-04-29T11:36:33.456Z,100946.72
2023-04-29T11:39:09.424Z,100946.66
2023-04-29T11:41:43.656Z,100952.78
2023-04-29T11:44:14.164Z,100956.09
2023-04-29T11:46:50.469Z,100955.38
2023-04-29T11:49:20.292Z,100955.38
2023-04-29T11:52:01.664Z,100956.34
2023-04-29T11:54:35.387Z,100964.97
2023-04-29T11:57:05.899Z,100956.34
2023-04-29T11:59:34.059Z,100965.91
2023-04-29T12:02:11.229Z,100969.31
2023-04-29T12:04:47.865Z,100970.13
2023-04-29T12:07:23.534Z,100984.75
2023-04-29T12:09:52.109Z,100983.91
2023-04-29T12:12:24.269Z,100983.13
2023-04-29T12:14:56.010Z,100989.78
2023-04-29T12:17:27.750Z,100992.38
2023-04-29T12:19:57.360Z,100985.59
2023-04-29T12:22:32.845Z,100992.44
2023-04-29T12:25:02.221Z,100997.53
2023-04-29T12:27:32.921Z,100992.53
2023-04-29T12:30:08.637Z,100989.06
2023-04-29T12:32:39.594Z,100994.28
2023-04-29T12:35:22.139Z,100992.59
2023-04-29T12:37:53.775Z,101001.22
2023-04-29T12:40:23.239Z,101002.94
2023-04-29T12:42:52.128Z,101001.19
2023-04-29T12:45:31.245Z,101004.69
2023-04-29T12:48:01.154Z,100998.59
2023-04-29T12:50:33.197Z,101002.81
2023-04-29T12:53:04.183Z,101011.53
2023-04-29T12:55:36.104Z,101004.66
2023-04-29T12:58:12.708Z,101007.28
2023-04-29T13:00:40.986Z,101008.19
2023-04-29T13:03:12.499Z,101004.69
2023-04-29T13:05:43.929Z,101001.31
2023-04-29T13:08:19.472Z,101011.66
2023-04-29T13:10:47.827Z,101011.63
2023-04-29T13:13:16.508Z,101011.66
2023-04-29T13:15:45.282Z,101009.91
2023-04-29T13:18:15.505Z,101015.97
2023-04-29T13:23:17.392Z,101020.25
2023-04-29T13:25:57.368Z,101025.44
2023-04-29T13:28:28.468Z,101028.03
2023-04-29T13:33:56.186Z,101046.09
2023-04-29T13:36:24.745Z,101039.19
2023-04-29T13:38:55.691Z,101039.19
2023-04-29T13:41:26.008Z,101038.44
2023-04-29T13:43:58.563Z,101044.50
2023-04-29T13:46:26.235Z,101041.03
2023-04-29T13:52:09.568Z,101037.56
2023-04-29T13:54:53.338Z,101042.69
2023-04-29T13:57:37.255Z,101048.66
2023-04-29T13:59:52.196Z,101039.19
2023-04-29T14:04:51.689Z,101048.69
2023-04-29T14:07:19.294Z,101053.03
2023-04-29T14:09:49.295Z,101050.44
2023-04-29T14:12:16.749Z,101049.63
2023-04-29T14:14:44.237Z,101057.47
2023-04-29T14:17:11.645Z,101053.09
2023-04-29T14:19:39.091Z,101063.41
2023-04-29T14:22:06.487Z,101066.88
2023-04-29T14:24:33.945Z,101069.53
2023-04-29T14:27:03.305Z,101072.13
2023-04-29T14:29:30.845Z,101069.53
2023-04-29T14:31:58.268Z,101060.00
2023-04-29T14:34:25.740Z,101064.34
2023-04-29T14:36:53.183Z,101063.50
2023-04-29T14:39:20.655Z,101068.66
2023-04-29T14:41:48.727Z,101072.09
2023-04-29T14:44:17.612Z,101067.78
2023-04-29T14:46:45.138Z,101070.19
2023-04-29T14:49:12.798Z,101071.22
2023-04-29T14:51:40.355Z,101072.16
2023-04-29T14:54:09.108Z,101074.72
2023-04-29T14:56:37.835Z,101071.28
2023-04-29T14:59:07.250Z,101084.22
2023-04-29T15:01:36.647Z,101078.19
2023-04-29T15:04:05.605Z,101089.38
2023-04-29T15:06:33.252Z,101079.88
2023-04-29T15:09:01.116Z,101079.03
2023-04-29T15:11:28.547Z,101077.28
2023-04-29T15:13:56.470Z,101082.50
2023-04-29T15:16:24.040Z,101084.22
2023-04-29T15:18:52.784Z,101082.50
2023-04-29T15:21:20.985Z,101079.91
2023-04-29T15:23:48.598Z,101087.69
2023-04-29T15:26:16.034Z,101087.72
2023-04-29T15:28:45.698Z,101088.56
2023-04-29T15:31:13.556Z,101081.66
2023-04-29T15:33:41.160Z,101092.00
2023-04-29T15:36:09.922Z,101091.13
2023-04-29T15:38:37.315Z,101084.06
2023-04-29T15:41:04.971Z,101092.72
2023-04-29T15:43:33.440Z,101093.66
2023-04-29T15:46:00.984Z,101092.56
2023-04-29T15:48:28.406Z,101085.50
2023-04-29T15:50:56.142Z,101105.75
2023-04-29T15:53:24.906Z,101099.38
2023-04-29T15:55:52.348Z,101109.78
2023-04-29T15:58:19.749Z,101111.78
2023-04-29T16:00:47.255Z,101110.94
2023-04-29T16:03:14.848Z,101115.06
2023-04-29T16:05:42.461Z,101120.41
2023-04-29T16:08:10.072Z,101113.28
2023-04-29T16:10:38.816Z,101115.78
2023-04-29T16:13:06.352Z,101129.88
2023-04-29T16:15:33.845Z,101117.59
2023-04-29T16:18:01.732Z,101118.03
2023-04-29T16:20:29.294Z,101120.78
2023-04-29T16:22:56.693Z,101125.31
2023-04-29T16:25:24.097Z,101139.50
2023-04-29T16:27:52.830Z,101127.06
2023-04-29T16:30:20.234Z,101133.81
2023-04-29T16:32:47.666Z,101133.28
2023-04-29T16:35:15.180Z,101128.75
2023-04-29T16:37:42.569Z,101124.09
2023-04-29T16:40:11.292Z,101130.63
2023-04-29T16:42:38.720Z,101140.97
2023-04-29T16:45:09.423Z,101130.34
2023-04-29T16:47:37.587Z,101126.72
2023-04-29T16:50:08.168Z,101141.09
2023-04-29T16:52:35.598Z,101151.56
2023-04-29T16:55:03.684Z,101143.78
2023-04-29T16:57:31.921Z,101155.06
2023-04-29T16:59:59.404Z,101153.34
2023-04-29T17:02:28.801Z,101153.34
2023-04-29T17:04:56.436Z,101159.41
2023-04-29T17:07:24.122Z,101167.22
2023-04-29T17:09:52.292Z,101162.00
2023-04-29T17:12:19.858Z,101166.34
2023-04-29T17:14:48.362Z,101170.69
2023-04-29T17:17:15.827Z,101172.41
2023-04-29T17:19:45.206Z,101169.81
2023-04-29T17:22:12.586Z,101179.31
2023-04-29T17:24:39.964Z,101182.78
2023-04-29T17:27:07.353Z,101185.38
2023-04-29T17:29:34.760Z,101191.41
2023-04-29T17:32:09.490Z,101184.50
2023-04-29T17:34:37.431Z,101194.03
2023-04-29T17:37:06.535Z,101197.47
2023-04-29T17:39:34.595Z,101208.72
2023-04-29T17:42:02.121Z,101201.81
2023-04-29T17:44:29.554Z,101200.06
2023-04-29T17:46:57.020Z,101204.38
2023-04-29T17:49:24.926Z,101203.56
2023-04-29T17:51:52.665Z,101205.28
2023-04-29T17:54:21.465Z,101213.88
2023-04-29T17:56:49.041Z,101217.34
2023-04-29T17:59:16.509Z,101221.66
2023-04-29T18:01:44.009Z,101224.25
2023-04-29T18:04:12.121Z,101232.00
2023-04-29T18:06:39.718Z,101218.25
2023-04-29T18:09:07.337Z,101226.03
2023-04-29T18:11:36.598Z,101231.97
2023-04-29T18:14:04.811Z,101228.50
2023-04-29T18:16:32.302Z,101227.72
2023-04-29T18:18:59.838Z,101237.19
2023-04-29T18:21:28.723Z,101232.03
2023-04-29T18:23:56.721Z,101237.25
2023-04-29T18:26:24.721Z,101245.81
2023-04-29T18:28:53.575Z,101241.56
2023-04-29T18:31:23.188Z,101253.59
2023-04-29T18:33:50.654Z,101251.94
2023-04-29T18:36:21.075Z,101257.13
2023-04-29T18:38:48.614Z,101259.75
2023-04-29T18:41:16.237Z,101263.13
2023-04-29T18:43:43.655Z,101259.72
2023-04-29T18:46:12.465Z,101270.91
2023-04-29T18:48:40.600Z,101276.13
2023-04-29T18:51:08.032Z,101277.03
2023-04-29T18:53:35.482Z,101284.69
2023-04-29T18:56:03.367Z,101286.41
2023-04-29T18:58:30.804Z,101293.41
2023-04-29T19:00:59.938Z,101295.13
2023-04-29T19:03:29.041Z,101296.81
2023-04-29T19:05:56.957Z,101292.63
2023-04-29T19:08:24.500Z,101299.53
2023-04-29T19:10:53.435Z,101306.44
2023-04-29T19:13:21.267Z,101314.25
2023-04-29T19:15:50.651Z,101317.47
2023-04-29T19:18:19.971Z,101315.06
2023-04-29T19:20:48.958Z,101314.25
2023-04-29T19:23:16.700Z,101321.19
2023-04-29T19:25:44.145Z,101322.06
2023-04-29T19:28:11.589Z,101322.88
2023-04-29T19:30:39.062Z,101333.22
2023-04-29T19:33:08.398Z,101335.00
2023-04-29T19:35:35.867Z,101337.59
2023-04-29T19:38:07.504Z,101340.19
2023-04-29T19:40:35.070Z,101337.53
2023-04-29T19:43:03.188Z,101345.38
2023-04-29T19:45:30.603Z,101338.44
2023-04-29T19:48:01.836Z,101346.97
2023-04-29T19:50:29.391Z,101345.38
2023-04-29T19:52:57.108Z,101346.91
2023-04-29T19:55:26.489Z,101345.31
2023-04-29T19:57:53.976Z,101352.19
2023-04-29T20:00:21.540Z,101353.81
2023-04-29T20:02:51.402Z,101352.19
2023-04-29T20:05:19.653Z,101359.13
2023-04-29T20:07:50.037Z,101357.31
2023-04-29T20:10:17.489Z,101356.44
2023-04-29T20:12:46.650Z,101364.06
2023-04-29T20:15:14.161Z,101363.47
2023-04-29T20:17:41.709Z,101369.25
2023-04-29T20:20:10.343Z,101370.00
2023-04-29T20:22:41.079Z,101373.53
2023-04-29T20:25:08.907Z,101374.56
2023-04-29T20:27:36.581Z,101378.03
2023-04-29T20:30:06.695Z,101380.66
2023-04-29T20:32:34.228Z,101386.66
2023-04-29T20:35:01.697Z,101391.81
2023-04-29T20:37:29.368Z,101387.53
2023-04-29T20:39:56.871Z,101388.31
2023-04-29T20:42:24.333Z,101394.44
2023-04-29T20:44:51.944Z,101396.19
2023-04-29T20:47:21.350Z,101397.75
2023-04-29T20:49:49.564Z,101406.44
2023-04-29T20:52:17.375Z,101410.50
2023-04-29T20:54:45.203Z,101413.13
2023-04-29T20:57:12.634Z,101415.53
2023-04-29T20:59:40.097Z,101407.91
2023-04-29T21:02:08.110Z,101405.41
2023-04-29T21:04:37.010Z,101407.09
2023-04-29T21:07:07.017Z,101415.81
2023-04-29T21:09:35.873Z,101413.28
2023-04-29T21:12:05.276Z,101422.63
2023-04-29T21:14:32.789Z,101427.00
2023-04-29T21:17:00.462Z,101432.91
2023-04-29T21:19:28.258Z,101434.50
2023-04-29T21:21:57.015Z,101446.06
2023-04-29T21:24:24.519Z,101442.28
2023-04-29T21:26:51.985Z,101444.47
2023-04-29T21:29:20.203Z,101450.38
2023-04-29T21:31:47.773Z,101447.63
2023-04-29T21:34:15.356Z,101459.16
2023-04-29T21:36:42.825Z,101460.06
2023-04-29T21:39:11.815Z,101468.72
2023-04-29T21:41:40.113Z,101471.09
2023-04-29T21:44:08.343Z,101470.16
2023-04-29T21:46:37.017Z,101472.63
2023-04-29T21:49:04.858Z,101476.06
2023-04-29T21:51:32.683Z,101476.59
2023-04-29T21:54:00.388Z,101471.34
2023-04-29T21:56:29.205Z,101478.41
2023-04-29T21:58:56.695Z,101477.28
2023-04-29T22:01:39.627Z,101478.84
2023-04-29T22:04:07.487Z,101479.13
2023-04-29T22:06:35.235Z,101483.84
2023-04-29T22:09:02.882Z,101487.44
2023-04-29T22:11:31.752Z,101484.09
2023-04-29T22:13:59.263Z,101490.56
2023-04-29T22:16:26.857Z,101497.13
2023-04-29T22:18:54.651Z,101496.25
2023-04-29T22:21:22.269Z,101499.38
2023-04-29T22:23:50.215Z,101501.25
2023-04-29T22:26:18.562Z,101508.09
2023-04-29T22:28:47.333Z,101520.41
2023-04-29T22:31:14.763Z,101522.88
2023-04-29T22:33:42.229Z,101515.81
2023-04-29T22:36:09.698Z,101528.25
2023-04-29T22:38:37.843Z,101530.78
2023-04-29T22:41:05.813Z,101542.31
2023-04-29T22:43:33.248Z,101534.25
2023-04-29T22:46:02.135Z,101546.06
2023-04-29T22:48:29.699Z,101545.28
2023-04-29T22:50:59.710Z,101548.78
2023-04-29T22:53:27.514Z,101544.56
2023-04-29T22:55:56.398Z,101551.19
2023-04-29T22:58:25.757Z,101555.03
2023-04-29T23:00:55.922Z,101558.16
2023-04-29T23:03:25.425Z,101559.19
2023-04-29T23:05:54.946Z,101566.91
2023-04-29T23:08:22.418Z,101563.91
2023-04-29T23:10:50.295Z,101563.63
2023-04-29T23:13:18.607Z,101568.44
2023-04-29T23:15:46.420Z,101564.09
2023-04-29T23:18:14.027Z,101561.94
2023-04-29T23:20:42.904Z,101562.00
2023-04-29T23:23:10.415Z,101556.31
2023-04-29T23:25:37.819Z,101567.59
2023-04-29T23:28:05.481Z,101570.09
2023-04-29T23:30:33.084Z,101569.94
2023-04-29T23:33:00.770Z,101570.03
2023-04-29T23:35:28.199Z,101576.50
2023-04-29T23:37:56.944Z,101578.47
2023-04-29T23:40:24.432Z,101578.16
2023-04-29T23:42:51.858Z,101584.06
2023-04-29T23:45:19.299Z,101587.53
2023-04-29T23:47:46.793Z,101587.44
2023-04-29T23:50:14.254Z,101584.88
2023-04-29T23:52:41.702Z,101584.66
2023-04-29T23:55:11.305Z,101591.81
2023-04-29T23:57:38.773Z,101588.28
